Time;durP1;ratioP1;P1;durP2;ratioP2;P2;SDS_P1;SDS_P2;PMS_P1;PMS_P2;Temp;Humidity;BMP_temperature;BMP_pressure;BME280_temperature;BME280_humidity;BME280_pressure;Samples;Min_cycle;Max_cycle;Signal;HPM_P1;HPM_P2
2022/04/27 00:00:13;;;;;;;8.20;2.45;;;6.90;99.90;;;;;;5006724;28;20029;-83
2022/04/27 00:02:39;;;;;;;5.32;1.95;;;6.80;99.90;;;;;;5025331;28;20025;-82
2022/04/27 00:05:06;;;;;;;4.43;1.50;;;6.80;99.90;;;;;;5010245;28;20059;-81
2022/04/27 00:07:33;;;;;;;3.85;1.45;;;6.80;99.90;;;;;;5025519;28;20041;-81
2022/04/27 00:09:59;;;;;;;5.37;1.73;;;6.80;99.90;;;;;;5025664;28;20409;-83
2022/04/27 00:12:27;;;;;;;6.87;2.37;;;6.80;99.90;;;;;;5041038;28;20389;-84
2022/04/27 00:14:58;;;;;;;8.02;2.00;;;6.70;99.90;;;;;;5043237;28;20040;-82
2022/04/27 00:17:25;;;;;;;3.55;1.52;;;6.80;99.90;;;;;;5007346;28;20060;-83
2022/04/27 00:19:51;;;;;;;6.75;2.10;;;6.80;99.90;;;;;;5040740;28;20036;-83
2022/04/27 00:22:18;;;;;;;3.47;1.67;;;6.80;99.90;;;;;;5055469;28;20029;-82
2022/04/27 00:24:44;;;;;;;6.25;1.75;;;6.70;99.90;;;;;;5024124;28;20036;-82
2022/04/27 00:27:10;;;;;;;5.13;2.28;;;6.70;99.90;;;;;;5012424;28;20040;-81
2022/04/27 00:29:37;;;;;;;7.38;1.98;;;6.70;99.90;;;;;;5036568;28;20029;-81
2022/04/27 00:32:04;;;;;;;5.82;2.22;;;6.70;99.90;;;;;;5032764;28;20040;-83
2022/04/27 00:34:30;;;;;;;5.35;1.92;;;6.70;99.90;;;;;;4998697;28;20037;-81
2022/04/27 00:36:59;;;;;;;4.00;2.08;;;6.70;99.90;;;;;;5009387;28;20036;-83
2022/04/27 00:39:25;;;;;;;7.65;2.47;;;6.70;99.90;;;;;;5023498;28;20032;-83
2022/04/27 00:42:01;;;;;;;5.97;2.13;;;6.70;99.90;;;;;;5011276;28;20048;-81
2022/04/27 00:44:32;;;;;;;11.10;2.60;;;6.60;99.90;;;;;;5025234;28;20029;-82
2022/04/27 00:47:02;;;;;;;5.70;2.08;;;6.60;99.90;;;;;;5009514;28;20200;-81
2022/04/27 00:49:29;;;;;;;5.40;1.92;;;6.60;99.90;;;;;;5024914;28;20033;-82
2022/04/27 00:51:56;;;;;;;4.03;1.90;;;6.60;99.90;;;;;;5026213;28;20436;-84
2022/04/27 00:54:23;;;;;;;6.85;2.10;;;6.60;99.90;;;;;;5023053;28;20036;-82
2022/04/27 00:56:50;;;;;;;5.75;1.90;;;6.60;99.90;;;;;;5025248;28;20045;-83
2022/04/27 00:59:17;;;;;;;3.67;1.48;;;6.50;99.90;;;;;;5012580;28;20033;-82
2022/04/27 01:01:44;;;;;;;6.30;1.95;;;6.50;99.90;;;;;;4996616;28;20033;-82
2022/04/27 01:04:11;;;;;;;5.30;2.03;;;6.50;99.90;;;;;;5025622;28;20020;-82
2022/04/27 01:06:38;;;;;;;4.57;1.85;;;6.50;99.90;;;;;;4994038;28;22834;-83
2022/04/27 01:09:05;;;;;;;7.38;1.73;;;6.40;99.90;;;;;;5014715;28;20040;-83
2022/04/27 01:11:32;;;;;;;7.57;2.10;;;6.40;99.90;;;;;;5007619;28;20045;-83
2022/04/27 01:14:03;;;;;;;4.22;1.92;;;6.30;99.90;;;;;;5020600;28;20033;-82
2022/04/27 01:16:29;;;;;;;6.90;2.10;;;6.30;99.90;;;;;;4995377;28;20020;-83
2022/04/27 01:18:56;;;;;;;5.15;1.83;;;6.20;99.90;;;;;;5027217;28;20041;-82
2022/04/27 01:21:26;;;;;;;2.95;1.60;;;6.20;99.90;;;;;;5009120;28;20036;-82
2022/04/27 01:24:09;;;;;;;4.28;1.52;;;6.20;99.90;;;;;;4982230;28;20172;-83
2022/04/27 01:26:37;;;;;;;2.53;1.63;;;6.10;99.90;;;;;;5019041;28;20044;-82
2022/04/27 01:29:07;;;;;;;5.75;2.20;;;6.10;99.90;;;;;;4992939;28;20041;-82
2022/04/27 01:31:42;;;;;;;3.65;1.80;;;6.00;99.90;;;;;;5019022;28;20044;-82
2022/04/27 01:34:10;;;;;;;6.28;1.60;;;6.00;99.90;;;;;;4992595;28;20596;-82
2022/04/27 01:36:43;;;;;;;2.95;1.50;;;6.00;99.90;;;;;;5005333;28;20049;-82
2022/04/27 01:39:14;;;;;;;6.55;1.60;;;5.90;99.90;;;;;;4989189;28;20045;-81
2022/04/27 01:41:44;;;;;;;4.27;1.73;;;5.90;99.90;;;;;;5004307;28;20068;-82
2022/04/27 01:44:13;;;;;;;4.55;2.50;;;5.90;99.90;;;;;;4994864;28;20100;-82
2022/04/27 01:46:43;;;;;;;6.90;2.53;;;5.90;99.90;;;;;;4976215;28;20026;-82
2022/04/27 01:49:11;;;;;;;3.38;1.55;;;5.80;99.90;;;;;;4995494;28;20041;-82
2022/04/27 01:54:41;;;;;;;6.43;2.45;;;5.80;99.90;;;;;;5026140;28;20037;-83
2022/04/27 01:57:28;;;;;;;4.87;1.40;;;5.80;99.90;;;;;;5042993;28;20491;-83
2022/04/27 01:59:58;;;;;;;3.53;1.73;;;5.80;99.90;;;;;;5040416;28;20059;-83
2022/04/27 02:02:30;;;;;;;2.30;1.73;;;5.70;99.90;;;;;;5046499;28;20024;-83
2022/04/27 02:05:04;;;;;;;3.27;1.83;;;5.70;99.90;;;;;;5041472;28;20040;-83
2022/04/27 02:07:38;;;;;;;8.77;2.97;;;5.70;99.90;;;;;;5041356;28;20041;-85
2022/04/27 02:10:11;;;;;;;4.93;1.80;;;5.70;99.90;;;;;;5025629;28;20045;-84
2022/04/27 02:12:42;;;;;;;4.07;2.17;;;5.60;99.90;;;;;;5033045;28;20041;-83
2022/04/27 02:15:21;;;;;;;3.77;2.03;;;5.60;99.90;;;;;;5027388;28;20040;-83
2022/04/27 02:18:00;;;;;;;4.90;2.60;;;5.60;99.90;;;;;;5015307;28;20033;-83
2022/04/27 02:20:28;;;;;;;4.27;2.10;;;5.60;99.90;;;;;;5038624;28;20032;-83
2022/04/27 02:23:20;;;;;;;2.67;1.60;;;5.60;99.90;;;;;;5028938;28;20041;-83
2022/04/27 02:25:57;;;;;;;2.90;1.63;;;5.60;99.90;;;;;;5028966;28;20416;-83
2022/04/27 02:28:39;;;;;;;3.87;1.50;;;5.50;99.90;;;;;;5042319;28;20052;-83
2022/04/27 02:31:12;;;;;;;5.50;2.20;;;5.50;99.90;;;;;;5041384;28;20546;-84
2022/04/27 02:33:42;;;;;;;5.37;2.40;;;5.50;99.90;;;;;;5028384;28;20032;-84
2022/04/27 02:36:11;;;;;;;6.60;2.20;;;5.50;99.90;;;;;;5032811;28;20069;-84
2022/04/27 02:38:44;;;;;;;6.50;2.10;;;5.50;99.90;;;;;;5019600;28;20091;-84
2022/04/27 02:41:13;;;;;;;5.03;2.30;;;5.40;99.90;;;;;;5034622;28;20044;-84
2022/04/27 02:43:41;;;;;;;7.73;2.00;;;5.40;99.90;;;;;;5014690;28;20051;-84
2022/04/27 02:46:21;;;;;;;5.50;1.87;;;5.40;99.90;;;;;;5071065;28;20051;-84
2022/04/27 02:51:49;;;;;;;3.55;1.73;;;5.40;99.90;;;;;;5040013;28;20032;-83
2022/04/27 02:54:22;;;;;;;4.97;1.73;;;5.40;99.90;;;;;;5050355;28;20048;-84
2022/04/27 02:56:54;;;;;;;6.03;2.17;;;5.40;99.90;;;;;;5048764;28;20393;-84
2022/04/27 02:59:22;;;;;;;4.53;1.80;;;5.40;99.90;;;;;;5042797;28;20397;-83
2022/04/27 03:01:52;;;;;;;6.47;2.10;;;5.40;99.90;;;;;;5000400;28;20041;-84
2022/04/27 03:04:18;;;;;;;3.87;1.60;;;5.40;99.90;;;;;;5032220;28;20053;-84
2022/04/27 03:06:50;;;;;;;5.80;2.17;;;5.30;99.90;;;;;;5014880;28;20044;-83
2022/04/27 03:09:17;;;;;;;3.60;2.00;;;5.30;99.90;;;;;;5026869;28;20055;-83
2022/04/27 03:11:52;;;;;;;4.77;2.13;;;5.30;99.90;;;;;;5012544;28;20044;-83
2022/04/27 03:14:37;;;;;;;5.93;2.57;;;5.30;99.90;;;;;;5060473;28;20465;-83
2022/04/27 03:17:16;;;;;;;3.60;2.00;;;5.30;99.90;;;;;;5032097;28;20041;-84
2022/04/27 03:19:58;;;;;;;3.97;2.20;;;5.30;99.90;;;;;;5043523;28;20029;-83
2022/04/27 03:22:27;;;;;;;7.70;2.63;;;5.20;99.90;;;;;;5033117;28;20041;-83
2022/04/27 03:25:00;;;;;;;7.47;2.50;;;5.20;99.90;;;;;;5047262;28;20060;-83
2022/04/27 03:30:39;;;;;;;7.40;2.08;;;5.20;99.90;;;;;;5007776;28;20049;-83
2022/04/27 03:33:37;;;;;;;7.70;2.33;;;5.20;99.90;;;;;;4994883;28;20443;-84
2022/04/27 03:36:16;;;;;;;4.93;2.20;;;5.10;99.90;;;;;;4996090;28;20505;-83
2022/04/27 03:38:54;;;;;;;4.37;2.00;;;5.10;99.90;;;;;;5007403;28;20053;-82
2022/04/27 03:41:22;;;;;;;5.37;2.87;;;5.00;99.90;;;;;;5008026;28;20567;-83
2022/04/27 03:43:53;;;;;;;5.68;2.25;;;5.00;99.90;;;;;;5004071;28;20037;-82
2022/04/27 03:46:21;;;;;;;6.50;2.27;;;5.00;99.90;;;;;;4991947;28;20038;-82
2022/04/27 03:48:48;;;;;;;7.23;2.17;;;5.00;99.90;;;;;;4988729;28;20033;-83
2022/04/27 03:51:16;;;;;;;3.43;2.03;;;4.90;99.90;;;;;;4988990;28;20389;-83
2022/04/27 03:53:50;;;;;;;5.15;2.60;;;4.90;99.90;;;;;;4994227;28;20042;-83
2022/04/27 03:56:38;;;;;;;3.08;1.70;;;5.00;99.90;;;;;;5009600;28;20045;-83
2022/04/27 03:59:15;;;;;;;4.90;1.90;;;4.90;99.90;;;;;;5009341;28;20045;-83
2022/04/27 04:01:45;;;;;;;3.90;1.97;;;4.90;99.90;;;;;;5001816;28;20144;-82
2022/04/27 04:04:21;;;;;;;4.07;1.83;;;4.90;99.90;;;;;;5045745;28;20029;-82
2022/04/27 04:06:50;;;;;;;3.40;1.90;;;4.90;99.90;;;;;;5043398;28;20048;-82
2022/04/27 04:09:21;;;;;;;4.83;2.00;;;5.00;99.90;;;;;;5044448;28;20720;-82
2022/04/27 04:11:56;;;;;;;5.83;2.23;;;4.90;99.90;;;;;;5043490;28;20028;-82
2022/04/27 04:14:40;;;;;;;3.73;2.13;;;4.90;99.90;;;;;;5047707;28;20055;-83
2022/04/27 04:17:31;;;;;;;5.73;2.10;;;4.90;99.90;;;;;;5043825;28;21152;-83
2022/04/27 04:20:27;;;;;;;4.97;1.60;;;4.90;99.90;;;;;;5031562;28;20037;-83
2022/04/27 04:23:04;;;;;;;3.23;1.47;;;4.90;99.90;;;;;;5045048;28;20025;-83
2022/04/27 04:28:48;;;;;;;5.00;2.23;;;4.90;99.90;;;;;;5044141;28;20037;-83
2022/04/27 04:31:17;;;;;;;4.63;1.53;;;4.90;99.90;;;;;;5024179;28;20052;-82
2022/04/27 04:34:32;;;;;;;3.43;1.20;;;4.90;99.90;;;;;;4980729;28;20570;-83
2022/04/27 04:37:01;;;;;;;4.47;1.57;;;4.90;99.90;;;;;;4984753;28;20049;-83
2022/04/27 04:39:49;;;;;;;4.03;1.57;;;4.90;99.90;;;;;;4988529;28;20057;-82
2022/04/27 04:42:20;;;;;;;4.80;1.90;;;5.00;99.90;;;;;;5000502;28;20041;-83
2022/04/27 04:45:17;;;;;;;6.13;1.53;;;5.00;99.90;;;;;;5014313;28;20048;-83
2022/04/27 04:48:25;;;;;;;4.20;1.93;;;5.10;99.90;;;;;;5025234;28;20034;-83
2022/04/27 04:51:28;;;;;;;2.50;1.50;;;5.10;99.90;;;;;;5039354;28;20490;-83
2022/04/27 04:54:27;;;;;;;6.80;2.10;;;5.20;99.90;;;;;;5016922;28;20392;-83
2022/04/27 04:57:05;;;;;;;4.20;1.60;;;5.30;99.90;;;;;;5041074;28;20044;-83
2022/04/27 04:59:56;;;;;;;4.97;1.83;;;5.40;99.90;;;;;;5042197;28;20053;-83
2022/04/27 05:02:23;;;;;;;3.03;1.67;;;5.50;99.90;;;;;;5036119;28;20528;-82
2022/04/27 05:05:48;;;;;;;6.40;2.47;;;5.60;99.90;;;;;;4983029;28;20034;-83
2022/04/27 05:08:50;;;;;;;5.67;1.97;;;5.90;99.90;;;;;;4955009;28;20035;-83
2022/04/27 05:11:47;;;;;;;5.65;1.83;;;6.00;99.90;;;;;;4962706;28;20039;-83
2022/04/27 05:14:33;;;;;;;6.93;1.80;;;6.00;99.90;;;;;;4950944;28;20051;-82
2022/04/27 05:17:44;;;;;;;3.85;2.10;;;6.10;99.90;;;;;;4933852;28;20035;-84
2022/04/27 05:20:25;;;;;;;3.22;1.50;;;6.10;99.90;;;;;;4963064;28;20045;-82
2022/04/27 05:23:32;;;;;;;5.80;1.93;;;6.20;99.90;;;;;;5005830;28;20042;-85
2022/04/27 05:26:18;;;;;;;;;;;6.20;99.90;;;;;;5016128;28;20048;-84
2022/04/27 05:32:21;;;;;;;7.33;2.50;;;6.40;99.90;;;;;;5017683;28;20029;-79
2022/04/27 05:35:25;;;;;;;3.30;1.98;;;6.50;99.90;;;;;;5014187;28;20041;-81
2022/04/27 05:38:05;;;;;;;5.78;2.38;;;6.60;99.90;;;;;;4986709;28;20061;-84
2022/04/27 05:41:13;;;;;;;10.32;5.50;;;6.70;99.90;;;;;;4973498;28;20449;-82
2022/04/27 05:44:14;;;;;;;9.63;4.97;;;6.90;99.90;;;;;;5006431;28;20042;-82
2022/04/27 05:47:09;;;;;;;17.05;9.70;;;7.10;99.90;;;;;;5003549;28;20354;-82
2022/04/27 05:50:04;;;;;;;7.75;4.20;;;7.30;99.90;;;;;;5017202;28;20051;-84
2022/04/27 05:52:58;;;;;;;7.88;3.65;;;7.50;99.90;;;;;;4985813;28;20049;-90
2022/04/27 05:56:01;;;;;;;5.78;3.10;;;7.80;99.90;;;;;;5011529;28;20040;-88
2022/04/27 05:58:30;;;;;;;8.32;3.20;;;8.00;99.90;;;;;;5025397;28;20053;-83
2022/04/27 06:01:25;;;;;;;7.15;3.30;;;8.20;99.90;;;;;;5004997;28;20037;-88
2022/04/27 06:04:30;;;;;;;6.80;3.58;;;8.40;99.90;;;;;;5067024;28;20036;-81
2022/04/27 06:07:08;;;;;;;8.45;4.40;;;8.60;99.90;;;;;;5062488;28;20402;-80
2022/04/27 06:09:35;;;;;;;8.07;4.07;;;8.80;99.90;;;;;;5015261;28;20060;-80
2022/04/27 06:12:36;;;;;;;18.60;9.98;;;8.90;99.90;;;;;;5057529;28;20055;-79
2022/04/27 06:15:29;;;;;;;11.52;6.10;;;9.20;99.90;;;;;;5065482;28;20040;-80
2022/04/27 06:18:02;;;;;;;8.32;3.78;;;9.40;99.90;;;;;;5063151;28;20040;-80
2022/04/27 06:20:33;;;;;;;5.90;3.22;;;9.60;99.90;;;;;;5038701;28;20033;-80
2022/04/27 06:22:59;;;;;;;6.32;2.67;;;9.80;99.90;;;;;;5023621;28;20041;-76
2022/04/27 06:25:26;;;;;;;5.22;2.22;;;9.90;99.90;;;;;;5032656;28;20048;-81
2022/04/27 06:28:04;;;;;;;7.63;2.17;;;10.10;99.90;;;;;;5004638;28;20495;-80
2022/04/27 06:30:35;;;;;;;5.97;2.10;;;10.20;99.90;;;;;;5013475;28;20048;-83
2022/04/27 06:33:02;;;;;;;5.53;2.70;;;10.40;99.90;;;;;;5001903;28;20048;-85
2022/04/27 06:35:29;;;;;;;4.32;2.20;;;10.60;99.90;;;;;;4996325;28;20041;-84
2022/04/27 06:38:01;;;;;;;9.82;2.65;;;10.80;99.90;;;;;;5014375;28;20041;-80
2022/04/27 06:40:29;;;;;;;6.22;2.10;;;11.20;99.90;;;;;;5024485;28;20028;-81
2022/04/27 06:42:58;;;;;;;4.78;2.28;;;11.40;99.90;;;;;;5016161;28;20051;-81
2022/04/27 06:45:44;;;;;;;6.50;2.20;;;11.70;99.90;;;;;;5044191;28;20045;-82
2022/04/27 06:48:30;;;;;;;7.63;2.47;;;11.90;99.90;;;;;;5033455;28;20048;-82
2022/04/27 06:51:17;;;;;;;7.22;2.38;;;11.90;99.90;;;;;;5042218;28;20029;-81
2022/04/27 06:54:04;;;;;;;6.10;1.67;;;11.90;99.90;;;;;;5030717;28;20037;-82
2022/04/27 06:56:49;;;;;;;4.40;1.98;;;12.00;99.90;;;;;;5030710;28;20044;-82
2022/04/27 06:59:34;;;;;;;7.15;2.08;;;12.10;99.90;;;;;;5029532;28;20057;-82
2022/04/27 07:02:12;;;;;;;4.30;1.30;;;12.30;99.90;;;;;;5002614;28;20038;-81
2022/04/27 07:04:41;;;;;;;5.70;2.10;;;12.60;99.90;;;;;;5025835;28;20388;-81
2022/04/27 07:07:10;;;;;;;9.65;2.35;;;12.80;99.90;;;;;;5010084;28;20044;-81
2022/04/27 07:09:36;;;;;;;6.80;2.85;;;13.00;99.90;;;;;;5015861;28;20044;-80
2022/04/27 07:12:03;;;;;;;9.68;4.53;;;13.00;99.60;;;;;;5028739;28;20037;-81
2022/04/27 07:14:32;;;;;;;7.07;3.10;;;12.90;98.90;;;;;;5026863;28;20381;-80
2022/04/27 07:17:00;;;;;;;8.98;2.90;;;12.80;99.10;;;;;;5012817;28;20056;-77
2022/04/27 07:19:27;;;;;;;6.65;2.42;;;12.80;99.20;;;;;;5008291;28;20399;-80
2022/04/27 07:22:07;;;;;;;5.68;1.50;;;12.90;98.60;;;;;;5010544;28;20041;-81
2022/04/27 07:25:08;;;;;;;6.22;1.85;;;12.90;98.10;;;;;;5026855;28;20056;-82
2022/04/27 07:27:43;;;;;;;3.88;1.20;;;12.80;98.00;;;;;;5044082;28;20041;-81
2022/04/27 07:30:15;;;;;;;7.43;1.95;;;12.80;97.90;;;;;;5041525;28;20036;-82
2022/04/27 07:32:45;;;;;;;7.88;1.75;;;12.90;97.80;;;;;;5016739;28;20040;-82
2022/04/27 07:35:18;;;;;;;3.83;1.27;;;12.90;97.50;;;;;;5041554;28;20404;-81
2022/04/27 07:37:52;;;;;;;3.88;1.23;;;13.00;97.50;;;;;;5028281;28;20025;-81
2022/04/27 07:40:22;;;;;;;6.45;2.03;;;13.20;97.00;;;;;;5007768;28;20412;-82
2022/04/27 07:42:59;;;;;;;8.02;1.73;;;13.20;96.80;;;;;;5025039;28;20049;-81
2022/04/27 07:45:37;;;;;;;7.15;1.60;;;13.30;96.60;;;;;;5026142;28;20388;-82
2022/04/27 07:48:23;;;;;;;5.88;1.40;;;13.40;96.20;;;;;;5044137;28;20029;-81
2022/04/27 07:50:52;;;;;;;3.70;1.40;;;13.50;95.70;;;;;;5025283;28;20482;-83
2022/04/27 07:53:21;;;;;;;3.30;0.90;;;13.60;95.30;;;;;;5029525;28;20037;-82
2022/04/27 07:55:56;;;;;;;3.50;0.85;;;13.60;94.50;;;;;;5028350;28;23203;-81
2022/04/27 07:58:35;;;;;;;3.00;0.77;;;13.80;94.20;;;;;;5010114;28;20060;-83
2022/04/27 08:01:13;;;;;;;4.13;0.95;;;13.90;93.70;;;;;;5025613;28;20044;-79
2022/04/27 08:03:50;;;;;;;5.57;1.00;;;13.90;93.10;;;;;;5041235;28;20024;-81
2022/04/27 08:06:21;;;;;;;3.87;0.87;;;14.00;92.60;;;;;;5029527;28;20049;-78
2022/04/27 08:08:48;;;;;;;3.13;0.80;;;14.20;91.80;;;;;;5028527;28;20036;-85
2022/04/27 08:11:26;;;;;;;2.28;0.60;;;14.30;91.60;;;;;;5007830;28;20045;-79
2022/04/27 08:14:03;;;;;;;;;;;14.50;92.00;;;;;;5044124;28;20037;-80
2022/04/27 08:16:48;;;;;;;4.35;1.48;;;14.70;90.90;;;;;;5033698;28;19916;-82
2022/04/27 08:19:16;;;;;;;3.10;0.90;;;14.90;90.90;;;;;;5036861;28;20025;-80
2022/04/27 08:21:59;;;;;;;3.85;0.70;;;15.00;90.00;;;;;;5044617;28;20602;-79
2022/04/27 08:24:52;;;;;;;5.32;1.63;;;15.30;88.90;;;;;;5026976;28;20062;-80
2022/04/27 08:27:29;;;;;;;2.65;0.90;;;15.40;87.50;;;;;;5027433;28;20021;-77
2022/04/27 08:29:58;;;;;;;3.47;0.88;;;15.30;86.10;;;;;;5036828;28;20492;-82
2022/04/27 08:32:26;;;;;;;4.25;1.40;;;15.10;86.30;;;;;;5028069;28;20040;-81
2022/04/27 08:35:03;;;;;;;2.35;0.70;;;15.10;86.70;;;;;;5042646;28;20048;-81
2022/04/27 08:37:29;;;;;;;4.55;1.08;;;15.00;87.20;;;;;;5042469;28;20039;-81
2022/04/27 08:39:58;;;;;;;2.63;0.82;;;15.20;87.40;;;;;;5038238;28;20044;-81
2022/04/27 08:42:26;;;;;;;2.50;0.68;;;15.40;85.90;;;;;;5028981;28;20700;-79
2022/04/27 08:44:59;;;;;;;4.25;1.10;;;15.70;85.20;;;;;;5023118;28;20381;-84
2022/04/27 08:47:36;;;;;;;3.13;0.75;;;15.90;83.20;;;;;;5012768;28;20388;-80
2022/04/27 08:50:11;;;;;;;1.77;0.68;;;16.00;81.80;;;;;;5038837;28;20484;-78
2022/04/27 08:52:41;;;;;;;4.25;0.52;;;16.10;81.40;;;;;;5041008;28;20045;-80
2022/04/27 08:55:19;;;;;;;2.63;0.70;;;16.30;80.10;;;;;;5010803;28;20030;-83
2022/04/27 08:57:48;;;;;;;2.15;0.77;;;16.50;79.90;;;;;;5038842;28;20151;-83
2022/04/27 09:00:16;;;;;;;3.53;0.70;;;16.80;80.30;;;;;;5022370;28;20036;-77
2022/04/27 09:02:54;;;;;;;2.90;0.70;;;17.00;78.80;;;;;;5044323;28;20041;-79
2022/04/27 09:05:26;;;;;;;6.28;1.73;;;17.20;78.00;;;;;;5021643;28;20041;-80
2022/04/27 09:07:58;;;;;;;11.07;3.35;;;17.30;76.60;;;;;;5025322;28;20043;-82
2022/04/27 09:10:52;;;;;;;7.18;3.70;;;17.40;75.40;;;;;;5044403;28;20037;-84
2022/04/27 09:13:38;;;;;;;2.88;1.10;;;17.50;73.60;;;;;;5041555;28;20026;-83
2022/04/27 09:16:09;;;;;;;3.60;1.00;;;17.80;73.70;;;;;;5026542;28;20029;-84
2022/04/27 09:22:45;;;;;;;2.33;0.50;;;17.70;71.90;;;;;;5018718;28;20049;-85
2022/04/27 09:25:12;;;;;;;3.60;0.90;;;17.40;71.70;;;;;;5029919;28;20048;-82
2022/04/27 09:27:42;;;;;;;4.53;0.80;;;17.30;72.00;;;;;;5010437;28;20393;-82
2022/04/27 09:30:29;;;;;;;4.07;0.60;;;17.30;71.50;;;;;;5026997;28;20048;-82
2022/04/27 09:32:57;;;;;;;1.63;0.63;;;17.10;71.20;;;;;;5041240;28;20040;-83
2022/04/27 09:35:39;;;;;;;2.95;0.65;;;16.80;70.70;;;;;;5045761;28;20039;-88
2022/04/27 09:38:26;;;;;;;2.50;0.70;;;16.60;70.80;;;;;;5011472;28;20056;-82
2022/04/27 09:41:05;;;;;;;2.90;0.70;;;16.40;70.80;;;;;;5042743;28;20123;-86
2022/04/27 09:43:48;;;;;;;2.47;0.60;;;16.10;70.70;;;;;;5028031;28;20032;-87
2022/04/27 09:46:29;;;;;;;2.30;0.60;;;16.20;71.80;;;;;;5027965;28;20040;-88
2022/04/27 09:49:15;;;;;;;3.97;0.70;;;16.60;72.10;;;;;;5014002;28;20025;-88
2022/04/27 09:51:52;;;;;;;2.83;0.75;;;17.00;71.60;;;;;;5032293;28;20029;-85
2022/04/27 09:54:28;;;;;;;14.00;9.40;;;17.30;70.60;;;;;;5033719;28;20036;-84
2022/04/27 09:57:07;;;;;;;3.97;1.75;;;17.60;69.60;;;;;;5046513;28;20032;-87
2022/04/27 09:59:48;;;;;;;3.35;1.27;;;17.80;68.90;;;;;;5064010;28;20041;-83
2022/04/27 10:02:52;;;;;;;1.42;0.70;;;18.00;68.30;;;;;;5054653;28;20028;-89
2022/04/27 10:05:33;;;;;;;3.53;0.98;;;18.20;68.10;;;;;;5057720;28;20115;-83
2022/04/27 10:08:07;;;;;;;;;;;18.50;68.30;;;;;;5064882;28;20055;-85
2022/04/27 10:10:42;;;;;;;2.10;0.55;;;18.80;67.10;;;;;;5060009;28;19916;-88
2022/04/27 10:13:46;;;;;;;4.00;0.80;;;19.10;66.40;;;;;;5030009;28;20037;-88
2022/04/27 10:16:28;;;;;;;5.55;0.90;;;19.20;63.80;;;;;;5028834;28;20408;-89
2022/04/27 10:19:29;;;;;;;2.72;0.80;;;19.10;64.00;;;;;;5051392;28;20053;-88
2022/04/27 10:22:30;;;;;;;4.78;0.93;;;19.00;63.70;;;;;;5002178;28;20045;-88
2022/04/27 10:25:06;;;;;;;3.08;0.65;;;18.90;63.10;;;;;;5032866;28;20048;-89
2022/04/27 10:27:37;;;;;;;3.28;1.00;;;18.80;63.30;;;;;;5028585;28;20037;-89
2022/04/27 10:30:14;;;;;;;3.85;0.93;;;18.60;62.80;;;;;;5025673;28;20035;-88
2022/04/27 10:32:51;;;;;;;4.50;1.35;;;18.20;62.10;;;;;;5042509;28;20065;-88
2022/04/27 10:35:33;;;;;;;3.72;0.68;;;17.90;63.40;;;;;;5030639;28;20025;-88
2022/04/27 10:38:05;;;;;;;3.75;0.70;;;17.80;64.10;;;;;;5028904;28;20037;-87
2022/04/27 10:40:41;;;;;;;2.58;0.60;;;17.70;64.20;;;;;;5012843;28;20059;-89
2022/04/27 10:43:42;;;;;;;2.45;0.70;;;17.60;64.30;;;;;;5029162;28;20028;-88
2022/04/27 10:46:38;;;;;;;3.25;0.70;;;17.50;64.80;;;;;;5020856;28;20398;-88
2022/04/27 10:49:28;;;;;;;2.38;0.85;;;17.70;65.20;;;;;;5028436;28;20064;-88
2022/04/27 10:52:10;;;;;;;2.75;0.70;;;18.00;64.80;;;;;;5022494;28;20395;-88
2022/04/27 10:54:37;;;;;;;;;;;18.50;64.80;;;;;;5028422;28;20034;-88
2022/04/27 10:57:20;;;;;;;2.60;0.77;;;19.10;64.30;;;;;;5016068;28;19909;-89
2022/04/27 10:59:56;;;;;;;5.85;0.80;;;19.70;63.90;;;;;;5030067;28;20044;-89
2022/04/27 11:02:36;;;;;;;4.78;1.13;;;20.30;62.50;;;;;;5010856;28;20034;-88
2022/04/27 11:05:24;;;;;;;2.30;0.70;;;20.70;59.10;;;;;;5032897;28;20048;-89
2022/04/27 11:08:14;;;;;;;2.70;0.50;;;20.90;59.30;;;;;;5016855;28;20040;-89
2022/04/27 11:10:41;;;;;;;2.45;0.65;;;21.20;58.70;;;;;;5033751;28;20042;-88
2022/04/27 11:13:08;;;;;;;2.45;0.73;;;21.60;58.30;;;;;;5020020;28;20036;-88
2022/04/27 11:15:37;;;;;;;3.53;0.70;;;22.10;57.30;;;;;;5033260;28;20048;-89
2022/04/27 11:18:04;;;;;;;1.83;0.50;;;22.70;56.50;;;;;;5044524;28;20037;-88
2022/04/27 11:20:42;;;;;;;3.15;1.20;;;23.10;55.00;;;;;;5032855;28;20040;-88
2022/04/27 11:23:23;;;;;;;1.90;0.60;;;23.50;53.20;;;;;;5033954;28;20396;-88
2022/04/27 11:25:51;;;;;;;3.78;0.80;;;23.90;52.00;;;;;;5033186;28;20039;-88
2022/04/27 11:28:57;;;;;;;1.92;0.60;;;24.10;51.10;;;;;;5049027;28;20040;-88
2022/04/27 11:32:07;;;;;;;1.83;0.57;;;24.50;50.40;;;;;;4959022;28;20422;-89
2022/04/27 11:34:43;;;;;;;2.30;0.60;;;25.00;49.00;;;;;;4968940;28;20051;-89
2022/04/27 11:37:30;;;;;;;3.25;0.70;;;25.20;48.10;;;;;;4956460;28;20054;-89
2022/04/27 11:40:18;;;;;;;2.53;0.70;;;25.50;47.30;;;;;;4965442;28;20038;-86
2022/04/27 11:42:49;;;;;;;2.58;0.63;;;25.80;47.10;;;;;;4967995;28;20057;-85
2022/04/27 11:45:26;;;;;;;1.88;0.73;;;26.00;45.30;;;;;;4953441;28;20030;-85
2022/04/27 11:48:10;;;;;;;3.72;0.95;;;26.00;45.00;;;;;;4971307;28;20037;-86
2022/04/27 11:50:44;;;;;;;3.13;0.77;;;26.20;44.20;;;;;;4953543;28;20038;-84
2022/04/27 11:53:20;;;;;;;2.00;0.60;;;26.20;42.80;;;;;;4952016;28;20065;-84
2022/04/27 11:56:09;;;;;;;2.33;0.70;;;25.80;42.90;;;;;;4953743;28;21096;-84
2022/04/27 11:58:41;;;;;;;1.88;0.50;;;25.80;43.50;;;;;;4956290;28;20034;-84
2022/04/27 12:01:09;;;;;;;;;;;25.60;43.90;;;;;;4951578;28;20080;-84
2022/04/27 12:03:58;;;;;;;2.55;0.70;;;25.80;43.50;;;;;;4956816;28;20321;-84
2022/04/27 12:07:00;;;;;;;3.75;0.80;;;26.00;43.30;;;;;;4951817;28;20049;-84
2022/04/27 12:10:05;;;;;;;2.45;0.85;;;26.40;42.50;;;;;;5011006;28;20404;-84
2022/04/27 12:12:39;;;;;;;2.38;0.80;;;26.10;42.10;;;;;;4988997;28;20038;-83
2022/04/27 12:15:35;;;;;;;2.60;0.65;;;25.50;42.30;;;;;;4986066;28;20046;-88
2022/04/27 12:18:15;;;;;;;1.80;0.68;;;24.80;43.20;;;;;;5028060;28;20068;-84
2022/04/27 12:24:46;;;;;;;1.95;0.60;;;24.80;42.90;;;;;;4971482;28;20049;-84
2022/04/27 12:27:23;;;;;;;3.85;1.00;;;24.10;43.00;;;;;;5030877;28;20044;-85
2022/04/27 12:30:32;;;;;;;3.33;0.70;;;23.90;43.70;;;;;;5031517;28;20029;-85
2022/04/27 12:32:57;;;;;;;3.28;0.80;;;24.70;43.60;;;;;;5031630;28;20048;-86
2022/04/27 12:38:58;;;;;;;3.38;0.80;;;25.90;41.80;;;;;;5004032;28;20044;-90
2022/04/27 12:41:45;;;;;;;2.75;0.75;;;25.90;41.20;;;;;;4987562;28;20056;-89
2022/04/27 12:44:37;;;;;;;2.38;0.60;;;25.30;41.40;;;;;;4977555;28;20357;-90
2022/04/27 12:47:56;;;;;;;2.67;0.70;;;24.40;42.80;;;;;;4986043;28;20073;-86
2022/04/27 12:50:58;;;;;;;2.58;0.50;;;24.40;43.50;;;;;;5011161;28;20052;-85
2022/04/27 12:53:39;;;;;;;2.08;0.60;;;25.50;41.90;;;;;;4991899;28;20029;-86
2022/04/27 12:56:22;;;;;;;2.17;0.60;;;26.60;40.90;;;;;;5003440;28;20503;-86
2022/04/27 12:59:15;;;;;;;2.35;0.85;;;26.60;39.70;;;;;;5020406;28;20049;-91
2022/04/27 13:02:00;;;;;;;3.47;0.80;;;25.70;40.20;;;;;;4992296;28;20060;-89
2022/04/27 13:04:58;;;;;;;3.08;0.70;;;24.70;41.30;;;;;;4983114;28;20042;-86
2022/04/27 13:07:40;;;;;;;3.53;1.00;;;23.70;42.50;;;;;;5000877;28;20041;-90
2022/04/27 13:13:29;;;;;;;2.97;0.82;;;23.70;44.30;;;;;;5024039;28;20029;-91
2022/04/27 13:16:02;;;;;;;2.45;0.70;;;25.10;41.60;;;;;;5013622;28;20052;-91
2022/04/27 13:19:50;;;;;;;3.03;1.05;;;26.00;40.70;;;;;;4960597;28;20036;-92
2022/04/27 13:22:35;;;;;;;2.50;0.98;;;27.20;39.60;;;;;;5008813;28;20044;-87
2022/04/27 13:25:06;;;;;;;2.08;0.80;;;28.60;39.00;;;;;;5015486;28;20033;-91
2022/04/27 13:27:39;;;;;;;2.95;0.77;;;29.60;38.30;;;;;;5013399;28;20047;-92
2022/04/27 13:30:13;;;;;;;3.60;0.60;;;30.30;37.00;;;;;;5033092;28;20047;-92
2022/04/27 13:32:41;;;;;;;2.75;0.60;;;30.80;36.70;;;;;;5033728;28;20033;-92
2022/04/27 13:35:10;;;;;;;1.73;0.70;;;31.30;35.70;;;;;;5035537;28;20037;-91
2022/04/27 13:37:50;;;;;;;2.83;0.60;;;31.20;34.90;;;;;;5031784;28;20029;-83
2022/04/27 13:40:21;;;;;;;1.27;0.40;;;31.20;35.30;;;;;;5028606;28;20476;-84
2022/04/27 13:42:51;;;;;;;2.65;0.60;;;31.10;35.30;;;;;;5034961;28;20031;-89
2022/04/27 13:45:34;;;;;;;2.25;0.60;;;30.40;35.60;;;;;;5017151;28;20059;-86
2022/04/27 13:48:21;;;;;;;2.25;0.68;;;29.60;35.90;;;;;;5034217;28;20392;-91
2022/04/27 13:50:51;;;;;;;3.25;0.60;;;28.20;36.60;;;;;;5012572;28;20047;-92
2022/04/27 13:53:38;;;;;;;2.35;0.70;;;27.50;37.90;;;;;;5020956;28;20036;-91
2022/04/27 13:56:14;;;;;;;3.58;0.60;;;27.40;38.10;;;;;;5044691;28;20036;-92
2022/04/27 13:58:46;;;;;;;2.80;0.50;;;27.80;37.30;;;;;;5021617;28;20461;-87
2022/04/27 14:01:18;;;;;;;3.17;0.75;;;27.60;37.20;;;;;;5020338;28;20034;-83
2022/04/27 14:03:46;;;;;;;2.30;0.60;;;26.80;38.00;;;;;;5020767;28;20039;-88
2022/04/27 14:06:23;;;;;;;1.92;0.70;;;26.40;38.70;;;;;;5043904;28;20039;-89
2022/04/27 14:08:57;;;;;;;2.60;0.63;;;26.60;37.90;;;;;;5046222;28;20041;-92
2022/04/27 14:14:15;;;;;;;2.75;0.68;;;26.40;38.60;;;;;;5029583;28;20739;-86
2022/04/27 14:20:06;;;;;;;2.78;0.60;;;26.10;38.80;;;;;;5034042;28;20048;-91
2022/04/27 14:23:28;;;;;;;2.25;0.73;;;25.90;39.60;;;;;;5039069;28;20043;-91
2022/04/27 14:26:17;;;;;;;4.20;0.82;;;26.00;38.50;;;;;;5016723;28;20044;-91